Time;durP1;ratioP1;P1;durP2;ratioP2;P2;SDS_P1;SDS_P2;PMS_P1;PMS_P2;Temp;Humidity;BMP_temperature;BMP_pressure;BME280_temperature;BME280_humidity;BME280_pressure;Samples;Min_cycle;Max_cycle;Signal;HPM_P1;HPM_P2
2021/04/07 00:00:32;;;;;;;13.53;2.87;;;2.90;82.20;;;;;;4943317;29;20110;-90
2021/04/07 00:02:58;;;;;;;11.55;2.83;;;2.90;82.20;;;;;;4949251;29;20664;-90
2021/04/07 00:05:34;;;;;;;13.57;2.60;;;2.90;82.10;;;;;;4959422;29;20126;-92
2021/04/07 00:08:01;;;;;;;13.93;3.73;;;2.90;82.50;;;;;;4959255;29;20118;-91
2021/04/07 00:10:32;;;;;;;9.90;2.40;;;2.90;82.10;;;;;;4960174;29;20164;-90
2021/04/07 00:12:58;;;;;;;13.10;3.03;;;2.80;82.60;;;;;;4947108;29;20044;-90
2021/04/07 00:15:26;;;;;;;13.80;3.07;;;2.80;82.30;;;;;;4940386;29;20019;-90
2021/04/07 00:17:52;;;;;;;13.20;2.70;;;2.80;82.30;;;;;;4940367;29;20032;-91
2021/04/07 00:20:20;;;;;;;11.17;2.93;;;2.80;82.20;;;;;;4941453;29;20050;-90
2021/04/07 00:22:46;;;;;;;7.90;1.83;;;2.80;82.10;;;;;;4944347;29;20031;-91
2021/04/07 00:25:12;;;;;;;8.47;2.30;;;2.70;82.10;;;;;;4938954;29;20046;-91
2021/04/07 00:27:41;;;;;;;10.20;2.40;;;2.60;82.50;;;;;;4941403;29;20027;-91
2021/04/07 00:30:08;;;;;;;7.37;1.87;;;2.60;82.40;;;;;;4942589;29;20025;-91
2021/04/07 00:32:34;;;;;;;11.23;2.40;;;2.70;82.40;;;;;;4941046;29;20268;-91
2021/04/07 00:35:00;;;;;;;12.87;2.40;;;2.60;82.80;;;;;;4941586;29;20034;-91
2021/04/07 00:37:25;;;;;;;14.70;2.20;;;2.50;82.70;;;;;;4939532;29;20051;-91
2021/04/07 00:39:51;;;;;;;13.50;2.67;;;2.50;82.60;;;;;;4939182;29;20110;-91
2021/04/07 00:42:18;;;;;;;9.17;2.13;;;2.40;83.40;;;;;;4937424;29;20032;-90
2021/04/07 00:44:43;;;;;;;16.57;2.77;;;2.40;83.10;;;;;;4938532;29;20039;-91
2021/04/07 00:47:10;;;;;;;12.40;2.50;;;2.40;83.20;;;;;;4938635;29;20032;-91
2021/04/07 00:49:36;;;;;;;10.03;2.30;;;2.40;82.70;;;;;;4938312;29;20028;-90
2021/04/07 00:52:02;;;;;;;13.90;2.30;;;2.40;82.60;;;;;;4937874;29;20112;-92
2021/04/07 00:54:27;;;;;;;12.50;2.43;;;2.50;82.70;;;;;;4943129;29;20030;-90
2021/04/07 00:56:53;;;;;;;12.43;2.77;;;2.50;82.10;;;;;;4940234;29;20038;-90
2021/04/07 00:59:20;;;;;;;11.77;2.63;;;2.40;82.50;;;;;;4938731;29;20421;-91
2021/04/07 01:01:47;;;;;;;12.77;2.60;;;2.40;82.50;;;;;;4940124;29;20028;-91
2021/04/07 01:04:13;;;;;;;11.03;3.40;;;2.30;82.50;;;;;;4939654;29;20038;-91
2021/04/07 01:06:41;;;;;;;11.10;2.10;;;2.30;82.40;;;;;;4938563;29;20440;-91
2021/04/07 01:09:07;;;;;;;18.30;3.10;;;2.40;82.80;;;;;;4939608;29;20074;-92
2021/04/07 01:11:33;;;;;;;12.97;2.77;;;2.30;82.40;;;;;;4939087;28;20479;-91
2021/04/07 01:13:59;;;;;;;14.43;2.47;;;2.30;82.60;;;;;;4959227;28;20134;-91
2021/04/07 01:16:24;;;;;;;10.80;2.40;;;2.30;82.30;;;;;;4961292;28;20027;-91
2021/04/07 01:18:51;;;;;;;13.10;2.50;;;2.30;82.40;;;;;;4961529;28;20030;-91
2021/04/07 01:21:16;;;;;;;16.27;2.50;;;2.30;82.50;;;;;;4959246;28;20495;-91
2021/04/07 01:23:44;;;;;;;15.30;3.33;;;2.20;82.50;;;;;;4959353;28;20031;-91
2021/04/07 01:26:11;;;;;;;13.30;2.73;;;2.20;82.80;;;;;;4957404;28;20031;-90
2021/04/07 01:28:37;;;;;;;9.40;2.07;;;2.20;82.70;;;;;;4958326;28;20038;-90
2021/04/07 01:31:02;;;;;;;15.30;2.63;;;2.30;82.60;;;;;;4958514;28;20023;-91
2021/04/07 01:33:28;;;;;;;15.47;2.77;;;2.30;82.30;;;;;;4958244;28;20034;-90
2021/04/07 01:35:54;;;;;;;12.87;2.57;;;2.20;82.60;;;;;;4957376;28;20022;-90
2021/04/07 01:38:20;;;;;;;13.27;2.50;;;2.20;82.30;;;;;;4957612;28;20069;-91
2021/04/07 01:40:46;;;;;;;10.97;3.10;;;2.30;82.40;;;;;;4957642;28;20114;-91
2021/04/07 01:43:15;;;;;;;16.60;2.60;;;2.30;82.00;;;;;;4958015;28;20031;-91
2021/04/07 01:45:41;;;;;;;12.07;2.55;;;2.30;81.90;;;;;;4958672;28;20031;-90
2021/04/07 01:48:08;;;;;;;16.50;2.63;;;2.30;81.90;;;;;;4958277;28;20034;-89
2021/04/07 01:50:35;;;;;;;13.37;2.53;;;2.30;82.10;;;;;;4957739;28;20572;-91
2021/04/07 01:53:02;;;;;;;16.80;3.53;;;2.20;82.20;;;;;;4958316;28;20050;-90
2021/04/07 01:55:28;;;;;;;15.30;2.43;;;2.30;81.90;;;;;;4961405;28;20597;-89
2021/04/07 01:57:53;;;;;;;15.83;2.73;;;2.40;82.10;;;;;;4960942;28;20071;-90
2021/04/07 02:00:19;;;;;;;12.30;2.83;;;2.30;81.90;;;;;;4958591;28;20069;-91
2021/04/07 02:02:45;;;;;;;18.10;3.77;;;2.20;81.90;;;;;;4968988;28;20028;-90
2021/04/07 02:05:11;;;;;;;12.97;2.70;;;2.10;81.90;;;;;;4944911;29;20038;-90
2021/04/07 02:07:36;;;;;;;9.30;2.17;;;2.20;82.30;;;;;;4951095;29;20031;-89
2021/04/07 02:10:07;;;;;;;14.97;2.77;;;2.10;82.40;;;;;;4953105;29;20055;-90
2021/04/07 02:12:33;;;;;;;13.50;2.57;;;2.10;82.60;;;;;;4951976;29;20418;-90
2021/04/07 02:14:59;;;;;;;14.13;2.50;;;2.00;82.50;;;;;;4952394;29;20020;-91
2021/04/07 02:17:25;;;;;;;13.13;2.90;;;2.00;82.70;;;;;;4951855;29;20087;-90
2021/04/07 02:19:51;;;;;;;9.13;2.20;;;2.00;82.50;;;;;;4940165;29;20072;-90
2021/04/07 02:22:19;;;;;;;16.80;2.33;;;2.00;82.50;;;;;;4942542;29;20039;-90
2021/04/07 02:24:48;;;;;;;11.93;2.43;;;1.90;82.30;;;;;;4937882;29;20123;-91
2021/04/07 02:27:15;;;;;;;;;;;2.00;82.40;;;;;;4936448;29;20033;-91
2021/04/07 02:29:42;;;;;;;12.83;3.13;;;2.00;82.10;;;;;;4934724;29;19922;-91
2021/04/07 02:32:08;;;;;;;14.47;1.97;;;2.00;82.00;;;;;;4935202;29;20076;-89
2021/04/07 02:34:34;;;;;;;12.37;2.33;;;2.00;82.20;;;;;;4936251;29;20027;-90
2021/04/07 02:37:00;;;;;;;11.27;2.23;;;2.00;81.90;;;;;;4936458;29;20031;-90
2021/04/07 02:39:26;;;;;;;13.00;2.93;;;2.00;81.90;;;;;;4936392;29;20102;-91
2021/04/07 02:41:52;;;;;;;11.03;2.30;;;2.00;82.60;;;;;;4934595;29;20573;-91
2021/04/07 02:44:18;;;;;;;15.23;2.47;;;2.00;82.30;;;;;;4934375;29;20114;-91
2021/04/07 02:46:43;;;;;;;13.40;2.33;;;2.00;82.20;;;;;;4934259;29;20465;-90
2021/04/07 02:49:09;;;;;;;9.13;1.90;;;1.90;82.50;;;;;;4934129;29;20127;-90
2021/04/07 02:51:34;;;;;;;13.43;2.53;;;1.90;82.80;;;;;;4934368;29;20020;-91
2021/04/07 02:54:02;;;;;;;12.60;2.30;;;1.90;83.20;;;;;;4934392;29;20032;-91
2021/04/07 02:56:31;;;;;;;11.53;2.40;;;1.90;82.70;;;;;;4934207;29;20024;-92
2021/04/07 02:58:58;;;;;;;11.07;2.38;;;1.90;82.70;;;;;;4934372;29;20516;-91
2021/04/07 03:01:24;;;;;;;13.07;2.37;;;1.80;83.00;;;;;;4934135;29;20040;-90
2021/04/07 03:03:50;;;;;;;12.33;2.77;;;1.80;82.90;;;;;;4934219;29;20394;-91
2021/04/07 03:06:15;;;;;;;11.63;2.40;;;1.80;83.10;;;;;;4934256;29;20036;-90
2021/04/07 03:08:41;;;;;;;11.23;2.47;;;1.80;83.20;;;;;;4934122;29;20375;-90
2021/04/07 03:11:06;;;;;;;10.90;2.97;;;1.70;83.50;;;;;;4934263;29;20027;-90
2021/04/07 03:13:32;;;;;;;12.00;2.00;;;1.80;83.30;;;;;;4954601;28;20500;-91
2021/04/07 03:15:58;;;;;;;12.53;2.57;;;1.80;83.00;;;;;;4956544;28;20075;-90
2021/04/07 03:18:24;;;;;;;17.90;2.73;;;1.90;83.00;;;;;;4957510;28;20062;-90
2021/04/07 03:20:50;;;;;;;16.73;2.63;;;1.80;83.60;;;;;;4956497;28;20085;-89
2021/04/07 03:23:16;;;;;;;13.90;2.17;;;1.80;83.60;;;;;;4957163;28;20489;-90
2021/04/07 03:25:42;;;;;;;13.77;2.33;;;1.80;83.30;;;;;;4956834;28;20034;-89
2021/04/07 03:28:07;;;;;;;10.83;2.10;;;1.80;83.90;;;;;;4957440;28;20389;-89
2021/04/07 03:30:49;;;;;;;14.80;3.00;;;1.90;84.10;;;;;;4957060;28;20058;-90
2021/04/07 03:33:19;;;;;;;14.03;2.47;;;1.80;83.90;;;;;;4956519;28;20027;-90
2021/04/07 03:35:46;;;;;;;13.23;2.30;;;1.80;83.90;;;;;;4956358;28;20465;-91
2021/04/07 03:38:11;;;;;;;12.80;2.30;;;1.80;83.90;;;;;;4956832;28;20122;-90
2021/04/07 03:40:38;;;;;;;15.53;2.37;;;1.90;83.90;;;;;;4956415;28;20073;-91
2021/04/07 03:43:12;;;;;;;8.63;2.07;;;1.90;83.90;;;;;;4956542;28;20031;-91
2021/04/07 03:45:47;;;;;;;12.77;2.50;;;1.80;84.10;;;;;;4956160;28;20031;-91
2021/04/07 03:48:17;;;;;;;8.20;2.23;;;1.80;84.00;;;;;;4956353;28;20084;-90
2021/04/07 03:50:43;;;;;;;10.55;2.60;;;1.80;84.50;;;;;;4959364;28;20031;-90
2021/04/07 03:53:09;;;;;;;14.37;2.40;;;1.90;84.40;;;;;;4977101;28;20031;-91
2021/04/07 03:55:36;;;;;;;11.77;2.20;;;1.90;84.30;;;;;;4959625;28;20023;-90
2021/04/07 03:58:02;;;;;;;10.67;2.30;;;1.90;84.10;;;;;;4960399;28;20029;-89
2021/04/07 04:00:28;;;;;;;9.77;2.00;;;1.90;84.20;;;;;;4959981;28;20027;-91
2021/04/07 04:02:54;;;;;;;11.40;2.17;;;1.90;84.20;;;;;;4951069;28;20023;-92
2021/04/07 04:05:19;;;;;;;10.77;2.20;;;1.90;84.60;;;;;;4940072;29;20035;-90
2021/04/07 04:07:45;;;;;;;14.47;2.67;;;1.90;84.70;;;;;;4940942;29;20031;-90
2021/04/07 04:10:12;;;;;;;8.53;2.10;;;1.90;84.50;;;;;;4940921;29;20030;-89
2021/04/07 04:12:38;;;;;;;8.37;1.80;;;1.90;84.30;;;;;;4938306;29;20058;-90
2021/04/07 04:15:05;;;;;;;11.13;1.83;;;2.00;84.60;;;;;;4938939;29;20036;-91
2021/04/07 04:17:31;;;;;;;10.17;1.93;;;1.90;84.60;;;;;;4938448;29;20027;-90
2021/04/07 04:19:56;;;;;;;10.70;2.10;;;1.90;84.90;;;;;;4937764;29;20027;-91
2021/04/07 04:22:22;;;;;;;6.93;1.90;;;2.00;84.80;;;;;;4938519;29;20034;-91
2021/04/07 04:24:47;;;;;;;11.43;2.30;;;2.00;84.50;;;;;;4939045;29;20028;-88
2021/04/07 04:27:13;;;;;;;11.37;2.10;;;2.00;84.50;;;;;;4939601;29;20031;-90
2021/04/07 04:29:39;;;;;;;11.57;2.27;;;2.00;84.40;;;;;;4936739;29;20446;-91
2021/04/07 04:32:07;;;;;;;11.50;2.03;;;2.00;84.80;;;;;;4939272;29;20481;-90
2021/04/07 04:34:32;;;;;;;9.70;2.10;;;2.00;84.40;;;;;;4941449;29;20486;-90
2021/04/07 04:36:58;;;;;;;8.70;2.20;;;2.00;85.40;;;;;;4941213;29;20032;-90
2021/04/07 04:39:24;;;;;;;9.70;2.07;;;2.10;84.40;;;;;;4945939;29;20095;-90
2021/04/07 04:41:49;;;;;;;10.77;1.87;;;2.10;84.50;;;;;;4947433;29;20421;-89
2021/04/07 04:44:15;;;;;;;12.83;2.30;;;2.10;84.30;;;;;;4947713;29;20066;-90
2021/04/07 04:46:40;;;;;;;12.77;2.30;;;2.20;84.40;;;;;;4938460;29;20042;-89
2021/04/07 04:49:06;;;;;;;10.10;2.23;;;2.20;84.10;;;;;;4938472;29;20036;-90
2021/04/07 04:51:31;;;;;;;11.73;2.33;;;2.20;84.20;;;;;;4938193;29;20024;-90
2021/04/07 04:53:57;;;;;;;9.53;1.90;;;2.10;84.30;;;;;;4941075;29;20058;-90
2021/04/07 04:56:23;;;;;;;9.83;2.23;;;2.10;84.30;;;;;;4948798;29;20016;-82
2021/04/07 04:58:48;;;;;;;11.17;2.40;;;2.20;84.60;;;;;;4956371;29;20095;-82
2021/04/07 05:01:14;;;;;;;13.57;2.23;;;2.20;84.30;;;;;;4955339;29;20429;-83
2021/04/07 05:03:39;;;;;;;10.80;2.63;;;2.20;84.30;;;;;;4956105;29;20067;-82
2021/04/07 05:06:05;;;;;;;12.80;2.40;;;2.20;85.00;;;;;;4946984;29;20051;-88
2021/04/07 05:08:31;;;;;;;11.80;2.10;;;2.20;84.60;;;;;;4940483;29;20506;-89
2021/04/07 05:10:56;;;;;;;13.27;2.70;;;2.20;84.60;;;;;;4940460;29;20027;-87
2021/04/07 05:13:22;;;;;;;11.47;2.30;;;2.30;84.80;;;;;;4959052;28;20042;-87
2021/04/07 05:15:47;;;;;;;8.93;2.43;;;2.30;84.40;;;;;;4962443;28;20712;-87
2021/04/07 05:18:14;;;;;;;12.97;3.37;;;2.30;84.60;;;;;;4981078;28;20029;-87
2021/04/07 05:20:41;;;;;;;10.43;2.20;;;2.30;84.80;;;;;;4962769;28;20031;-88
2021/04/07 05:23:07;;;;;;;10.63;2.50;;;2.40;84.90;;;;;;4979580;28;20050;-87
2021/04/07 05:25:32;;;;;;;10.33;3.00;;;2.30;84.60;;;;;;4961911;28;20033;-86
2021/04/07 05:28:02;;;;;;;9.83;3.17;;;2.30;85.20;;;;;;4962719;28;20062;-88
2021/04/07 05:30:28;;;;;;;12.52;2.40;;;2.30;85.00;;;;;;4928257;28;20034;-88
2021/04/07 05:32:53;;;;;;;15.37;4.30;;;2.30;84.80;;;;;;4963736;28;20019;-89
2021/04/07 05:35:19;;;;;;;11.07;2.80;;;2.30;85.00;;;;;;4927028;29;20116;-87
2021/04/07 05:37:45;;;;;;;12.73;2.67;;;2.30;85.10;;;;;;4943118;29;20031;-87
2021/04/07 05:40:11;;;;;;;12.30;2.20;;;2.30;84.90;;;;;;4938275;29;20126;-86
2021/04/07 05:42:36;;;;;;;10.70;2.50;;;2.30;84.70;;;;;;4926388;29;20027;-84
2021/04/07 05:45:02;;;;;;;13.30;2.50;;;2.30;84.90;;;;;;4934753;29;20087;-87
2021/04/07 05:47:28;;;;;;;12.13;2.97;;;2.30;84.90;;;;;;4921248;29;20501;-87
2021/04/07 05:49:53;;;;;;;12.40;2.90;;;2.40;84.80;;;;;;4922532;29;20460;-87
2021/04/07 05:52:19;;;;;;;11.67;3.20;;;2.40;85.00;;;;;;4940526;29;20042;-89
2021/04/07 05:54:44;;;;;;;12.67;2.77;;;2.50;84.80;;;;;;4953300;29;20040;-87
2021/04/07 05:57:10;;;;;;;10.43;3.20;;;2.40;84.80;;;;;;4939610;29;20022;-89
2021/04/07 05:59:35;;;;;;;12.20;2.80;;;2.40;85.00;;;;;;4939963;29;20119;-87
2021/04/07 06:02:01;;;;;;;8.03;2.40;;;2.50;85.00;;;;;;4958475;28;20552;-85
2021/04/07 06:04:27;;;;;;;12.43;2.50;;;2.40;85.50;;;;;;4943884;29;20405;-88
2021/04/07 06:06:52;;;;;;;11.70;2.90;;;2.40;85.90;;;;;;4944073;29;20034;-89
2021/04/07 06:09:18;;;;;;;11.20;2.73;;;2.40;86.20;;;;;;4939757;29;20131;-90
2021/04/07 06:11:43;;;;;;;13.47;3.30;;;2.40;85.40;;;;;;4951391;28;20078;-89
2021/04/07 06:14:09;;;;;;;9.80;2.57;;;2.40;86.10;;;;;;4931303;29;20062;-86
2021/04/07 06:16:35;;;;;;;10.80;2.70;;;2.40;86.00;;;;;;4920038;29;20020;-86
2021/04/07 06:19:00;;;;;;;10.13;2.70;;;2.40;85.80;;;;;;4919692;29;20507;-89
2021/04/07 06:21:26;;;;;;;10.80;2.80;;;2.40;85.70;;;;;;4936309;29;20632;-87
2021/04/07 06:23:51;;;;;;;11.30;2.80;;;2.40;86.10;;;;;;4919918;29;20521;-81
2021/04/07 06:26:17;;;;;;;9.20;2.47;;;2.40;86.80;;;;;;4921036;29;20072;-90
2021/04/07 06:28:43;;;;;;;11.37;3.70;;;2.40;86.20;;;;;;4917195;29;20088;-89
2021/04/07 06:31:09;;;;;;;10.63;3.03;;;2.40;85.90;;;;;;4917741;29;20036;-89
2021/04/07 06:33:37;;;;;;;11.03;3.10;;;2.50;86.50;;;;;;4918051;29;20546;-89
2021/04/07 06:36:07;;;;;;;12.43;2.97;;;2.50;86.00;;;;;;4916958;29;20036;-88
2021/04/07 06:38:37;;;;;;;12.07;3.20;;;2.50;87.00;;;;;;4919021;29;20028;-90
2021/04/07 06:41:05;;;;;;;9.00;3.03;;;2.50;86.40;;;;;;4937045;29;20064;-89
2021/04/07 06:43:33;;;;;;;10.53;3.20;;;2.50;86.40;;;;;;4921905;29;20096;-90
2021/04/07 06:45:59;;;;;;;11.93;3.13;;;2.60;86.50;;;;;;4950525;29;20047;-89
2021/04/07 06:48:25;;;;;;;9.97;3.07;;;2.60;86.60;;;;;;4921737;29;20024;-85
2021/04/07 06:50:53;;;;;;;13.90;3.50;;;2.60;86.60;;;;;;4921348;29;20491;-88
2021/04/07 06:53:23;;;;;;;11.20;3.40;;;2.60;86.30;;;;;;4917152;29;20040;-90
2021/04/07 06:55:49;;;;;;;8.07;3.00;;;2.70;87.10;;;;;;4935456;29;20031;-87
2021/04/07 06:58:14;;;;;;;9.73;3.43;;;2.70;87.30;;;;;;4937122;29;20038;-89
2021/04/07 07:00:41;;;;;;;8.27;3.03;;;2.70;86.50;;;;;;4935635;29;20466;-89
2021/04/07 07:03:13;;;;;;;7.87;3.00;;;2.70;87.10;;;;;;4938685;29;20031;-90
2021/04/07 07:05:47;;;;;;;8.63;3.10;;;2.70;86.80;;;;;;4936581;29;20118;-87
2021/04/07 07:08:17;;;;;;;8.13;3.30;;;2.70;87.00;;;;;;4921111;29;20430;-89
2021/04/07 07:10:44;;;;;;;9.13;3.13;;;2.70;86.70;;;;;;4925639;29;20445;-90
2021/04/07 07:13:16;;;;;;;13.00;3.73;;;2.70;86.90;;;;;;4947769;29;20134;-90
2021/04/07 07:15:46;;;;;;;12.03;3.70;;;2.70;87.00;;;;;;4939707;29;20048;-92
2021/04/07 07:18:41;;;;;;;9.55;3.38;;;2.70;86.80;;;;;;4933998;29;20032;-92
2021/04/07 07:21:15;;;;;;;8.93;3.30;;;2.70;86.60;;;;;;4938384;29;20028;-91
2021/04/07 07:23:44;;;;;;;12.03;3.87;;;2.70;87.00;;;;;;4939691;29;20031;-90
2021/04/07 07:26:11;;;;;;;;;;;2.70;87.20;;;;;;4945683;29;20501;-89
2021/04/07 07:28:51;;;;;;;9.10;3.47;;;2.70;88.00;;;;;;4947835;29;19919;-91
2021/04/07 07:31:20;;;;;;;9.53;3.40;;;2.70;87.00;;;;;;4947778;29;20023;-90
2021/04/07 07:33:46;;;;;;;9.52;3.30;;;2.80;86.80;;;;;;4951721;29;20050;-86
2021/04/07 07:36:12;;;;;;;9.37;3.70;;;2.80;86.70;;;;;;4955762;29;20078;-88
2021/04/07 07:38:44;;;;;;;8.60;3.43;;;2.80;87.20;;;;;;4968729;29;20034;-82
2021/04/07 07:41:12;;;;;;;9.13;3.50;;;2.80;87.30;;;;;;4953582;23;20008;-88
2021/04/07 07:43:41;;;;;;;9.30;3.77;;;2.90;87.20;;;;;;4983689;28;20419;-91
2021/04/07 07:46:34;;;;;;;10.55;4.05;;;2.90;86.80;;;;;;4983665;28;20026;-91
2021/04/07 07:49:01;;;;;;;6.43;3.37;;;2.90;87.10;;;;;;4982897;28;20030;-92
2021/04/07 07:51:27;;;;;;;9.37;3.70;;;3.00;87.20;;;;;;4988549;28;20023;-92
2021/04/07 07:53:55;;;;;;;8.93;3.37;;;3.00;86.80;;;;;;4985632;28;20023;-90
2021/04/07 07:56:23;;;;;;;7.87;3.50;;;3.00;87.00;;;;;;4984513;28;20492;-92
2021/04/07 07:58:55;;;;;;;8.23;3.23;;;3.10;87.50;;;;;;4984933;28;20124;-91
2021/04/07 08:01:24;;;;;;;7.20;3.40;;;3.10;87.30;;;;;;4992730;28;20406;-93
2021/04/07 08:03:50;;;;;;;7.78;3.80;;;3.10;86.80;;;;;;4997994;28;20082;-91
2021/04/07 08:06:18;;;;;;;12.37;5.47;;;3.10;86.70;;;;;;4991639;28;20085;-89
2021/04/07 08:08:43;;;;;;;8.67;4.00;;;3.20;86.90;;;;;;4984378;28;20526;-90
2021/04/07 08:11:09;;;;;;;10.03;3.87;;;3.10;86.90;;;;;;4985323;28;20018;-89
2021/04/07 08:13:38;;;;;;;7.63;3.77;;;3.10;87.50;;;;;;4985108;28;20038;-91
2021/04/07 08:16:06;;;;;;;15.27;4.93;;;3.10;87.70;;;;;;4985224;28;20023;-80
2021/04/07 08:18:32;;;;;;;8.27;3.97;;;3.20;87.50;;;;;;5000746;28;20030;-79
2021/04/07 08:20:59;;;;;;;9.30;4.03;;;3.30;87.80;;;;;;4984591;28;20080;-89
2021/04/07 08:23:28;;;;;;;9.93;3.63;;;3.40;86.80;;;;;;4985980;28;20046;-90
2021/04/07 08:25:54;;;;;;;10.02;4.00;;;3.40;87.00;;;;;;4986177;28;20037;-88
2021/04/07 08:28:23;;;;;;;9.13;3.77;;;3.40;87.50;;;;;;5001279;28;20391;-90
2021/04/07 08:30:50;;;;;;;7.93;3.63;;;3.40;86.80;;;;;;4984817;28;20089;-90
2021/04/07 08:33:22;;;;;;;7.60;3.40;;;3.40;86.90;;;;;;4990023;28;20037;-91
2021/04/07 08:35:52;;;;;;;10.00;4.03;;;3.40;86.90;;;;;;4994480;28;20094;-89
2021/04/07 08:38:31;;;;;;;8.00;3.63;;;3.40;86.90;;;;;;4990195;28;20037;-89
2021/04/07 08:41:08;;;;;;;;;;;3.40;87.40;;;;;;4987543;28;20057;-91
2021/04/07 08:43:35;;;;;;;9.43;3.47;;;3.40;87.70;;;;;;4988669;28;19969;-91
2021/04/07 08:46:12;;;;;;;8.30;3.50;;;3.40;87.20;;;;;;4987114;28;20492;-85
2021/04/07 08:48:38;;;;;;;8.93;3.47;;;3.50;87.10;;;;;;4988597;28;20030;-85
2021/04/07 08:51:05;;;;;;;8.83;3.70;;;3.60;87.00;;;;;;5003123;28;20026;-91
2021/04/07 08:53:36;;;;;;;8.80;3.73;;;3.60;87.00;;;;;;4989536;28;20031;-93
2021/04/07 08:56:11;;;;;;;7.90;3.67;;;3.70;86.90;;;;;;4993025;28;20085;-92
2021/04/07 08:59:00;;;;;;;8.20;4.13;;;3.70;86.80;;;;;;5009486;28;20515;-91
2021/04/07 09:01:32;;;;;;;7.85;3.70;;;3.80;88.10;;;;;;4985706;28;20113;-90
2021/04/07 09:04:09;;;;;;;6.90;3.30;;;3.80;86.80;;;;;;4989097;28;20026;-89
2021/04/07 09:06:36;;;;;;;9.03;3.47;;;3.80;88.20;;;;;;5010309;28;20003;-90
2021/04/07 09:09:04;;;;;;;7.97;3.80;;;3.80;87.00;;;;;;5003556;28;20054;-88
2021/04/07 09:11:35;;;;;;;5.67;2.93;;;3.80;86.90;;;;;;5003540;28;20046;-90
2021/04/07 09:16:33;;;;;;;7.43;3.07;;;3.80;87.50;;;;;;4951843;29;20047;-84
2021/04/07 09:19:21;;;;;;;8.90;3.60;;;3.80;87.70;;;;;;4943415;29;20530;-88
2021/04/07 09:22:00;;;;;;;7.93;3.43;;;3.80;87.20;;;;;;4941395;29;20051;-88
2021/04/07 09:24:33;;;;;;;7.25;3.45;;;3.80;88.90;;;;;;4941774;29;20050;-89
2021/04/07 09:26:59;;;;;;;9.77;3.87;;;3.90;87.40;;;;;;4956254;29;20393;-88
2021/04/07 09:29:25;;;;;;;11.57;4.97;;;3.90;87.50;;;;;;4922417;29;20031;-88
2021/04/07 09:31:52;;;;;;;10.17;3.93;;;4.00;87.40;;;;;;4926030;29;20104;-88
2021/04/07 09:34:18;;;;;;;14.87;6.37;;;4.20;86.90;;;;;;4956550;29;20028;-82
2021/04/07 09:36:47;;;;;;;15.17;5.70;;;4.20;87.20;;;;;;4954735;29;20030;-84
2021/04/07 09:39:15;;;;;;;12.77;4.43;;;4.30;88.10;;;;;;4940791;29;20058;-87
2021/04/07 09:41:43;;;;;;;10.10;4.07;;;4.30;86.60;;;;;;4938573;29;20458;-81
2021/04/07 09:44:15;;;;;;;10.82;4.68;;;4.50;86.30;;;;;;4953779;29;20036;-86
2021/04/07 09:46:41;;;;;;;11.67;4.40;;;4.50;87.30;;;;;;4962817;28;20056;-91
2021/04/07 09:49:19;;;;;;;10.97;3.83;;;4.50;86.70;;;;;;4927344;29;20040;-91
2021/04/07 09:51:55;;;;;;;10.57;4.50;;;4.60;86.20;;;;;;4928695;29;20408;-91
2021/04/07 09:54:25;;;;;;;10.57;4.53;;;4.70;85.80;;;;;;4949015;29;20016;-91
2021/04/07 09:57:08;;;;;;;10.13;4.00;;;4.70;85.70;;;;;;4970605;28;20039;-92
2021/04/07 09:59:47;;;;;;;9.90;3.77;;;4.70;85.40;;;;;;4967093;28;20039;-91
2021/04/07 10:19:28;;;;;;;9.33;3.73;;;5.20;84.90;;;;;;4972551;28;20461;-75
2021/04/07 10:21:59;;;;;;;11.97;4.00;;;5.30;84.60;;;;;;4973490;28;20023;-75
2021/04/07 10:24:26;;;;;;;11.47;4.10;;;5.40;84.60;;;;;;4973163;28;20023;-74
2021/04/07 10:31:02;;;;;;;9.77;3.23;;;5.40;84.20;;;;;;4960646;28;20074;-88
2021/04/07 10:33:27;;;;;;;13.10;4.07;;;5.40;84.50;;;;;;4959889;28;20484;-87
2021/04/07 10:36:03;;;;;;;13.93;4.10;;;5.50;87.10;;;;;;4960993;28;20023;-86
2021/04/07 10:38:36;;;;;;;11.13;3.23;;;5.60;85.00;;;;;;4961426;28;20500;-87
2021/04/07 10:41:03;;;;;;;11.53;3.30;;;5.60;84.30;;;;;;4961182;28;20031;-86
2021/04/07 10:43:34;;;;;;;9.93;3.77;;;5.60;83.60;;;;;;4961379;28;20030;-87
2021/04/07 10:46:02;;;;;;;15.17;3.63;;;5.70;83.80;;;;;;4961353;28;20030;-87
2021/04/07 10:48:29;;;;;;;9.63;2.97;;;5.70;83.60;;;;;;4977990;28;20037;-86
2021/04/07 10:50:57;;;;;;;12.87;3.50;;;5.70;83.70;;;;;;4976684;28;20027;-87
2021/04/07 10:53:38;;;;;;;12.67;3.40;;;5.70;83.80;;;;;;4976334;28;20023;-87
2021/04/07 10:56:22;;;;;;;10.97;3.67;;;5.80;83.70;;;;;;4960786;28;20034;-87
2021/04/07 10:59:02;;;;;;;14.10;3.87;;;5.80;83.80;;;;;;4978446;28;20038;-87
2021/04/07 11:01:37;;;;;;;16.30;4.20;;;5.80;84.10;;;;;;4962150;28;20392;-90
2021/04/07 11:04:17;;;;;;;13.67;4.10;;;5.80;83.70;;;;;;4964360;28;20041;-86
2021/04/07 11:06:44;;;;;;;13.77;3.93;;;5.80;84.10;;;;;;4986657;28;20074;-94
2021/04/07 11:09:15;;;;;;;15.03;3.67;;;5.80;84.20;;;;;;4992088;28;20034;-90
2021/04/07 11:11:42;;;;;;;14.37;3.77;;;5.80;84.20;;;;;;4984008;28;20026;-92
2021/04/07 11:14:09;;;;;;;11.90;4.20;;;5.70;84.30;;;;;;4963289;28;20095;-91
2021/04/07 11:16:38;;;;;;;14.77;3.43;;;5.70;86.20;;;;;;4967485;29;20481;-91
2021/04/07 11:19:15;;;;;;;13.82;3.60;;;5.70;85.00;;;;;;4970109;29;20043;-90
2021/04/07 11:21:42;;;;;;;14.03;3.10;;;5.70;84.80;;;;;;4980589;28;20062;-91
2021/04/07 11:24:08;;;;;;;12.33;2.90;;;5.80;84.80;;;;;;4980918;29;20019;-91
2021/04/07 11:26:33;;;;;;;12.10;2.60;;;5.80;84.80;;;;;;4981668;28;20039;-86
2021/04/07 11:28:59;;;;;;;10.93;3.10;;;5.90;84.80;;;;;;4963956;29;20038;-73
2021/04/07 11:31:29;;;;;;;11.77;2.93;;;5.90;85.10;;;;;;4977251;28;20042;-91
2021/04/07 11:34:07;;;;;;;12.63;2.70;;;5.90;85.70;;;;;;4975361;28;20026;-92
2021/04/07 11:39:23;;;;;;;12.83;2.17;;;6.00;84.80;;;;;;4989591;28;20054;-92
2021/04/07 11:46:42;;;;;;;15.63;2.50;;;6.30;84.80;;;;;;4990180;28;20062;-92
2021/04/07 11:49:31;;;;;;;7.80;2.10;;;6.40;84.80;;;;;;4990959;28;20031;-93
2021/04/07 11:51:57;;;;;;;7.50;1.85;;;6.60;84.90;;;;;;4971122;28;20046;-91
2021/04/07 11:54:23;;;;;;;7.97;1.87;;;6.60;84.40;;;;;;4974881;28;20475;-93
2021/04/07 11:56:54;;;;;;;8.90;1.77;;;6.60;85.30;;;;;;4993250;28;20039;-93
2021/04/07 11:59:26;;;;;;;11.97;2.60;;;6.60;84.70;;;;;;4988385;28;20098;-94
2021/04/07 12:01:54;;;;;;;10.97;2.17;;;6.40;85.30;;;;;;4981876;28;20030;-92
2021/04/07 12:04:23;;;;;;;14.10;2.38;;;6.20;85.50;;;;;;4982982;28;20055;-92
2021/04/07 12:06:49;;;;;;;10.68;2.00;;;6.00;86.40;;;;;;4984640;28;20046;-94
2021/04/07 12:09:15;;;;;;;9.53;2.40;;;5.90;86.60;;;;;;4984739;28;20054;-93
2021/04/07 12:11:41;;;;;;;13.00;2.20;;;5.70;87.40;;;;;;4981648;28;20031;-93
2021/04/07 12:14:09;;;;;;;8.60;2.23;;;5.60;87.20;;;;;;4983161;28;20027;-92
2021/04/07 12:16:36;;;;;;;13.70;2.43;;;5.60;88.40;;;;;;4982379;28;20015;-92
2021/04/07 12:19:02;;;;;;;15.77;2.73;;;5.60;87.40;;;;;;4985000;28;20038;-93
2021/04/07 12:21:28;;;;;;;10.83;2.30;;;5.70;87.50;;;;;;4985176;28;20025;-92
2021/04/07 12:23:54;;;;;;;13.13;3.80;;;5.70;87.40;;;;;;4983828;28;20023;-92
2021/04/07 12:26:20;;;;;;;13.20;2.17;;;5.70;88.40;;;;;;4979484;28;20070;-93
2021/04/07 12:28:46;;;;;;;14.23;2.47;;;5.70;88.60;;;;;;4979698;28;20045;-93
2021/04/07 12:31:15;;;;;;;14.17;2.97;;;5.70;87.40;;;;;;4977453;28;20026;-93
2021/04/07 12:33:53;;;;;;;13.57;2.40;;;5.80;87.70;;;;;;4975847;28;20018;-93
2021/04/07 12:36:19;;;;;;;14.20;2.47;;;5.70;87.70;;;;;;4975745;28;20015;-93
2021/04/07 12:38:45;;;;;;;16.40;2.67;;;5.70;88.80;;;;;;4978009;28;20042;-92
2021/04/07 12:41:26;;;;;;;18.00;3.20;;;5.70;88.00;;;;;;4972535;28;20022;-92
2021/04/07 12:43:52;;;;;;;15.60;2.30;;;5.80;87.70;;;;;;4971116;28;20015;-92
2021/04/07 12:46:18;;;;;;;14.53;3.13;;;5.70;87.70;;;;;;4973042;28;20015;-91
2021/04/07 12:48:47;;;;;;;14.93;2.83;;;5.80;87.60;;;;;;4972139;28;20436;-92
2021/04/07 12:51:13;;;;;;;16.60;3.00;;;5.80;87.50;;;;;;4978490;28;20039;-92
2021/04/07 12:53:40;;;;;;;18.87;3.43;;;5.80;88.80;;;;;;4973403;28;20037;-92
2021/04/07 12:56:08;;;;;;;16.40;3.23;;;5.80;87.30;;;;;;4975620;28;20109;-92
2021/04/07 12:58:38;;;;;;;18.37;3.90;;;5.80;87.20;;;;;;4969209;28;20035;-92
2021/04/07 13:01:04;;;;;;;12.73;2.60;;;5.80;87.80;;;;;;4971938;28;20058;-92
2021/04/07 13:03:30;;;;;;;11.97;2.23;;;5.70;88.00;;;;;;4972418;28;20531;-91
2021/04/07 13:05:56;;;;;;;13.70;2.30;;;5.70;87.40;;;;;;4972524;28;20034;-91
2021/04/07 13:08:23;;;;;;;12.30;2.33;;;5.70;88.00;;;;;;4972643;28;20062;-92
2021/04/07 13:10:48;;;;;;;13.03;2.20;;;5.70;88.00;;;;;;4969244;28;20472;-92
2021/04/07 13:13:39;;;;;;;16.50;2.50;;;5.70;88.10;;;;;;4967753;28;20066;-92
2021/04/07 13:16:09;;;;;;;15.00;2.60;;;5.70;88.20;;;;;;4969304;28;20043;-93
2021/04/07 13:18:36;;;;;;;18.97;2.60;;;5.70;88.00;;;;;;4990766;28;20070;-85
2021/04/07 13:21:07;;;;;;;13.70;2.60;;;5.70;88.30;;;;;;4965404;28;20031;-87
2021/04/07 13:23:47;;;;;;;13.30;2.57;;;5.80;89.10;;;;;;4987534;28;20027;-90
2021/04/07 13:44:44;;;;;;;9.20;2.27;;;6.60;86.50;;;;;;4989907;28;20038;-93